Weather at Teterboro Airport

Public forecast

Using degrees Fahrenheit for public forecast. Weather courtesy of forecast.io.

Current aviation weather report (METAR) for Teterboro Airport

Report is more than 6 hours old.

Retrieved 2022/09/17 18:51 UTC (13 days ago):

KTEB 171851Z 19008KT 10SM FEW044 23/13 A3022 RMK AO2 SLP232 T02330133

Aviation forecast (TAF) for Teterboro Airport

Forecast is more than 12 hours old.

Retrieved 2022/09/17 18:27 UTC (13 days ago):

TAF KTEB 171724Z 1718/1824 16007KT P6SM SCT050 SCT250 FM180100 20005KT P6SM SCT250 FM181300 24010KT P6SM BKN250 FM181800 24012G17KT P6SM FEW050 SCT250